Time;durP1;ratioP1;P1;durP2;ratioP2;P2;SDS_P1;SDS_P2;PMS_P1;PMS_P2;Temp;Humidity;BMP_temperature;BMP_pressure;BME280_temperature;BME280_humidity;BME280_pressure;Samples;Min_cycle;Max_cycle;Signal;HPM_P1;HPM_P2
2023/08/02 00:01:47;;;;;;;10.85;2.83;;;16.00;99.90;;;;;;5060072;28;20033;-79
2023/08/02 00:04:14;;;;;;;10.95;3.55;;;16.00;99.90;;;;;;5063756;28;20511;-77
2023/08/02 00:06:39;;;;;;;8.98;3.17;;;16.00;99.90;;;;;;5068523;28;20032;-81
2023/08/02 00:09:05;;;;;;;7.80;3.03;;;16.00;99.90;;;;;;5067686;28;20027;-77
2023/08/02 00:11:30;;;;;;;6.70;2.88;;;16.00;99.90;;;;;;5067606;28;20505;-79
2023/08/02 00:13:56;;;;;;;6.90;2.95;;;16.00;99.90;;;;;;5067301;28;20119;-79
2023/08/02 00:16:22;;;;;;;5.10;3.17;;;16.00;99.90;;;;;;5068618;28;20033;-78
2023/08/02 00:18:47;;;;;;;9.45;3.00;;;15.90;99.90;;;;;;5064697;28;20401;-79
2023/08/02 00:21:13;;;;;;;16.08;2.80;;;15.90;99.90;;;;;;5067881;28;20078;-78
2023/08/02 00:23:38;;;;;;;12.57;3.72;;;15.90;99.90;;;;;;5066630;28;20582;-80
2023/08/02 00:26:04;;;;;;;7.10;2.75;;;15.90;99.90;;;;;;5067025;28;20116;-79
2023/08/02 00:28:29;;;;;;;11.52;2.78;;;15.90;99.90;;;;;;5065111;28;20028;-78
2023/08/02 00:30:55;;;;;;;8.60;3.28;;;15.80;99.90;;;;;;5063514;28;20037;-79
2023/08/02 00:33:21;;;;;;;8.05;3.08;;;15.80;99.90;;;;;;5065891;28;20020;-79
2023/08/02 00:35:49;;;;;;;12.85;3.03;;;15.90;99.90;;;;;;5065833;28;20020;-79
2023/08/02 00:38:15;;;;;;;10.25;3.00;;;15.80;99.90;;;;;;5062611;28;20489;-79
2023/08/02 00:40:40;;;;;;;5.47;2.60;;;15.80;99.90;;;;;;5063757;28;20443;-78
2023/08/02 00:43:06;;;;;;;16.88;3.30;;;15.80;99.90;;;;;;5066263;28;20177;-77
2023/08/02 00:45:32;;;;;;;8.95;3.00;;;15.80;99.90;;;;;;5067447;28;20508;-79
2023/08/02 00:47:59;;;;;;;4.90;2.50;;;15.80;99.90;;;;;;5067584;28;20028;-78
2023/08/02 00:50:28;;;;;;;5.30;2.40;;;15.80;99.90;;;;;;5064889;28;20037;-78
2023/08/02 00:52:54;;;;;;;5.18;2.55;;;15.70;99.90;;;;;;5059209;28;20029;-79
2023/08/02 00:55:20;;;;;;;6.18;2.53;;;15.80;99.90;;;;;;5061443;28;20033;-78
2023/08/02 00:57:46;;;;;;;7.40;2.70;;;15.80;99.90;;;;;;5062127;28;20012;-78
2023/08/02 01:00:16;;;;;;;7.75;2.58;;;15.80;99.90;;;;;;5063128;28;20051;-79
2023/08/02 01:02:42;;;;;;;4.88;2.53;;;15.80;99.90;;;;;;5065931;28;20028;-79
2023/08/02 01:05:08;;;;;;;5.85;2.35;;;15.90;99.90;;;;;;5065026;28;20032;-78
2023/08/02 01:07:44;;;;;;;4.40;2.63;;;15.90;99.90;;;;;;5065479;28;20029;-78
2023/08/02 01:10:25;;;;;;;5.47;2.45;;;15.90;99.90;;;;;;5061927;28;20470;-78
2023/08/02 01:12:54;;;;;;;12.50;3.58;;;15.90;99.90;;;;;;5061964;28;20553;-78
2023/08/02 01:15:20;;;;;;;15.52;3.10;;;16.00;99.90;;;;;;5066820;28;20036;-78
2023/08/02 01:17:47;;;;;;;7.68;2.70;;;16.00;99.90;;;;;;5062760;28;20390;-78
2023/08/02 01:20:12;;;;;;;5.72;2.50;;;16.00;99.90;;;;;;5061078;28;20031;-78
2023/08/02 01:22:38;;;;;;;9.88;2.50;;;16.10;99.90;;;;;;5067146;28;20036;-78
2023/08/02 01:25:04;;;;;;;8.55;2.40;;;16.10;99.90;;;;;;5065714;28;20036;-78
2023/08/02 01:27:56;;;;;;;6.05;2.45;;;16.10;99.90;;;;;;5065477;28;20111;-79
2023/08/02 01:30:24;;;;;;;6.97;2.83;;;16.10;99.90;;;;;;5059363;28;20248;-79
2023/08/02 01:32:50;;;;;;;7.63;2.72;;;16.20;99.90;;;;;;5060342;28;20370;-79
2023/08/02 01:35:16;;;;;;;10.40;3.40;;;16.20;99.90;;;;;;5067352;28;20032;-77
2023/08/02 01:37:42;;;;;;;12.55;2.35;;;16.20;99.90;;;;;;5067493;28;20032;-77
2023/08/02 01:40:09;;;;;;;9.25;2.72;;;16.20;99.90;;;;;;5064863;28;20154;-78
2023/08/02 01:42:35;;;;;;;7.50;2.83;;;16.20;99.90;;;;;;5066678;28;20036;-80
2023/08/02 01:45:01;;;;;;;8.82;2.30;;;16.20;99.90;;;;;;5060256;28;20571;-79
2023/08/02 01:47:27;;;;;;;11.13;2.95;;;16.20;99.90;;;;;;5066151;28;20063;-79
2023/08/02 01:49:52;;;;;;;9.07;2.55;;;16.20;99.90;;;;;;5065926;28;20024;-79
2023/08/02 01:52:18;;;;;;;5.82;2.47;;;16.20;99.90;;;;;;5060230;28;20025;-79
2023/08/02 01:54:43;;;;;;;6.78;2.83;;;16.20;99.90;;;;;;5066809;28;20021;-78
2023/08/02 01:57:09;;;;;;;11.48;2.88;;;16.20;99.90;;;;;;5064162;28;20028;-78
2023/08/02 01:59:35;;;;;;;9.50;3.13;;;16.20;99.90;;;;;;5066418;28;20130;-79
2023/08/02 02:02:01;;;;;;;16.17;2.95;;;16.10;99.90;;;;;;5064826;28;20394;-78
2023/08/02 02:04:27;;;;;;;11.27;2.58;;;16.10;99.90;;;;;;5066773;28;20080;-80
2023/08/02 02:06:52;;;;;;;9.23;2.97;;;16.10;99.90;;;;;;5066489;28;20032;-79
2023/08/02 02:09:18;;;;;;;7.05;2.95;;;16.10;99.90;;;;;;5065725;28;20037;-78
2023/08/02 02:11:44;;;;;;;18.67;3.83;;;16.00;99.90;;;;;;5065198;28;20482;-79
2023/08/02 02:14:09;;;;;;;6.03;2.38;;;16.00;99.90;;;;;;5066721;28;20058;-81
2023/08/02 02:16:35;;;;;;;13.15;3.63;;;15.90;99.90;;;;;;5064612;28;20474;-80
2023/08/02 02:19:00;;;;;;;18.33;4.45;;;16.00;99.90;;;;;;5066178;28;20024;-81
2023/08/02 02:21:26;;;;;;;8.13;2.38;;;15.90;99.90;;;;;;5061078;28;20043;-78
2023/08/02 02:23:52;;;;;;;8.60;2.40;;;15.90;99.90;;;;;;5065006;28;20075;-79
2023/08/02 02:26:17;;;;;;;8.85;2.58;;;15.80;99.90;;;;;;5064481;28;20029;-77
2023/08/02 02:28:43;;;;;;;11.52;2.65;;;15.90;99.90;;;;;;5063830;28;20025;-77
2023/08/02 02:31:08;;;;;;;10.82;2.45;;;15.80;99.90;;;;;;5066377;28;20108;-80
2023/08/02 02:33:34;;;;;;;12.07;3.00;;;15.80;99.90;;;;;;5064523;28;20036;-80
2023/08/02 02:35:59;;;;;;;7.93;2.42;;;15.70;99.90;;;;;;5062020;28;20033;-89
2023/08/02 02:38:25;;;;;;;6.78;2.88;;;15.70;99.90;;;;;;5065306;28;20086;-79
2023/08/02 02:40:51;;;;;;;9.57;2.92;;;15.70;99.90;;;;;;5064691;28;20024;-80
2023/08/02 02:43:16;;;;;;;7.03;2.28;;;15.60;99.90;;;;;;5065196;28;20056;-81
2023/08/02 02:45:42;;;;;;;8.43;2.20;;;15.60;99.90;;;;;;5066299;28;20393;-79
2023/08/02 02:48:07;;;;;;;17.45;2.38;;;15.50;99.90;;;;;;5065026;28;20033;-85
2023/08/02 02:50:33;;;;;;;11.07;2.75;;;15.50;99.90;;;;;;5065610;28;20082;-80
2023/08/02 02:52:59;;;;;;;8.80;2.42;;;15.50;99.90;;;;;;5066398;28;20024;-78
2023/08/02 02:55:24;;;;;;;10.27;2.80;;;15.40;99.90;;;;;;5068256;28;20131;-77
2023/08/02 02:57:50;;;;;;;8.25;3.05;;;15.40;99.90;;;;;;5063713;28;20024;-79
2023/08/02 03:00:22;;;;;;;6.25;1.95;;;15.40;99.90;;;;;;5063443;28;20060;-81
2023/08/02 03:02:48;;;;;;;7.82;1.90;;;15.40;99.90;;;;;;5064790;28;20028;-79
2023/08/02 03:05:13;;;;;;;9.25;2.67;;;15.40;99.90;;;;;;5066758;28;20041;-80
2023/08/02 03:07:39;;;;;;;7.13;2.38;;;15.40;99.90;;;;;;5069232;28;20032;-78
2023/08/02 03:10:05;;;;;;;12.65;2.70;;;15.40;99.90;;;;;;5068322;28;20377;-80
2023/08/02 03:12:31;;;;;;;8.93;2.55;;;15.30;99.90;;;;;;5069409;28;20561;-79
2023/08/02 03:14:56;;;;;;;10.73;2.40;;;15.30;99.90;;;;;;5068354;28;20111;-78
2023/08/02 03:17:22;;;;;;;8.43;2.55;;;15.30;99.90;;;;;;5069289;28;20043;-79
2023/08/02 03:19:47;;;;;;;8.65;2.30;;;15.30;99.90;;;;;;5069133;28;20029;-80
2023/08/02 03:22:13;;;;;;;13.77;2.83;;;15.20;99.90;;;;;;5067030;28;20029;-79
2023/08/02 03:24:39;;;;;;;9.18;2.63;;;15.20;99.90;;;;;;5068609;28;20039;-83
2023/08/02 03:27:05;;;;;;;12.50;3.40;;;15.20;99.90;;;;;;5069158;28;20021;-81
2023/08/02 03:29:30;;;;;;;7.50;2.92;;;15.10;99.90;;;;;;5066739;28;20489;-80
2023/08/02 03:31:56;;;;;;;9.85;2.67;;;15.10;99.90;;;;;;5066496;28;20033;-79
2023/08/02 03:34:22;;;;;;;18.75;3.55;;;15.10;99.90;;;;;;5066366;28;20032;-83
2023/08/02 03:36:47;;;;;;;14.23;3.00;;;15.10;99.90;;;;;;5068792;28;20024;-79
2023/08/02 03:39:13;;;;;;;11.70;2.45;;;15.10;99.90;;;;;;5067914;28;20035;-84
2023/08/02 03:41:38;;;;;;;10.10;2.58;;;15.00;99.90;;;;;;5065466;28;20021;-85
2023/08/02 03:44:04;;;;;;;9.32;2.65;;;15.00;99.90;;;;;;5063576;28;20143;-79
2023/08/02 03:46:29;;;;;;;14.65;2.63;;;15.10;99.90;;;;;;5060322;28;20032;-82
2023/08/02 03:48:55;;;;;;;8.77;2.78;;;15.00;99.90;;;;;;5066821;28;20090;-81
2023/08/02 03:51:21;;;;;;;15.45;3.13;;;15.00;99.90;;;;;;5064291;28;20020;-81
2023/08/02 03:53:46;;;;;;;11.13;3.20;;;15.00;99.90;;;;;;5058595;28;20102;-80
2023/08/02 03:56:16;;;;;;;9.40;3.05;;;15.00;99.90;;;;;;5058047;28;20037;-80
2023/08/02 03:58:42;;;;;;;10.32;2.85;;;15.10;99.90;;;;;;5067615;28;20031;-79
2023/08/02 04:01:08;;;;;;;9.07;2.47;;;15.10;99.90;;;;;;5066046;28;20032;-79
2023/08/02 04:03:33;;;;;;;11.77;2.28;;;15.00;99.90;;;;;;5065643;28;20028;-79
2023/08/02 04:05:59;;;;;;;10.38;2.30;;;15.00;99.90;;;;;;5063927;28;20067;-79
2023/08/02 04:08:30;;;;;;;8.48;2.33;;;15.00;99.90;;;;;;5067507;28;20082;-79
2023/08/02 04:10:56;;;;;;;8.60;2.53;;;15.10;99.90;;;;;;5061520;28;20575;-78
2023/08/02 04:13:22;;;;;;;9.30;3.05;;;15.00;99.90;;;;;;5067403;28;20108;-79
2023/08/02 04:15:48;;;;;;;6.72;2.20;;;15.10;99.90;;;;;;5064509;28;20522;-80
2023/08/02 04:18:19;;;;;;;12.02;2.70;;;15.10;99.90;;;;;;5065146;28;20109;-80
2023/08/02 04:20:45;;;;;;;19.02;3.13;;;15.10;99.90;;;;;;5063851;28;20558;-79
2023/08/02 04:23:10;;;;;;;11.40;2.45;;;15.10;99.90;;;;;;5062078;28;20032;-82
2023/08/02 04:25:36;;;;;;;9.07;2.10;;;15.10;99.90;;;;;;5065563;28;20584;-79
2023/08/02 04:28:02;;;;;;;9.68;2.67;;;15.20;99.90;;;;;;5066662;28;20028;-80
2023/08/02 04:30:30;;;;;;;10.00;3.10;;;15.20;99.90;;;;;;5065471;28;20028;-80
2023/08/02 04:32:56;;;;;;;6.63;2.42;;;15.20;99.90;;;;;;5064647;28;20111;-80
2023/08/02 04:35:21;;;;;;;12.35;2.38;;;15.20;99.90;;;;;;5065550;28;20585;-80
2023/08/02 04:37:47;;;;;;;8.40;2.65;;;15.20;99.90;;;;;;5065207;28;20028;-80
2023/08/02 04:40:16;;;;;;;11.45;2.90;;;15.20;99.90;;;;;;5067059;28;20024;-79
2023/08/02 04:42:41;;;;;;;10.85;2.72;;;15.20;99.90;;;;;;5065454;28;20049;-79
2023/08/02 04:45:08;;;;;;;10.68;2.70;;;15.20;99.90;;;;;;5064331;28;20083;-80
2023/08/02 04:47:34;;;;;;;14.35;2.53;;;15.30;99.90;;;;;;5060886;28;20028;-80
2023/08/02 04:50:00;;;;;;;13.68;2.53;;;15.30;99.90;;;;;;5062621;28;20034;-80
2023/08/02 04:52:26;;;;;;;6.13;1.88;;;15.30;99.90;;;;;;5063108;28;20474;-82
2023/08/02 04:54:51;;;;;;;14.13;2.65;;;15.30;99.90;;;;;;5057461;28;20036;-80
2023/08/02 04:57:17;;;;;;;5.05;2.15;;;15.30;99.90;;;;;;5063285;28;20025;-79
2023/08/02 04:59:43;;;;;;;8.63;2.50;;;15.30;99.90;;;;;;5061514;28;20048;-80
2023/08/02 05:02:08;;;;;;;9.20;2.28;;;15.30;99.90;;;;;;5053733;28;20525;-78
2023/08/02 05:04:34;;;;;;;18.70;2.95;;;15.20;99.90;;;;;;5066475;28;20051;-80
2023/08/02 05:06:59;;;;;;;10.68;2.58;;;15.30;99.90;;;;;;5065543;28;20025;-80
2023/08/02 05:09:25;;;;;;;15.02;2.58;;;15.30;99.90;;;;;;5064767;28;20029;-80
2023/08/02 05:11:51;;;;;;;4.40;1.70;;;15.30;99.90;;;;;;5063952;28;20029;-80
2023/08/02 05:14:16;;;;;;;8.60;2.30;;;15.30;99.90;;;;;;5064464;28;20063;-80
2023/08/02 05:16:42;;;;;;;8.13;2.20;;;15.40;99.90;;;;;;5064921;28;20036;-80
2023/08/02 05:19:08;;;;;;;10.45;2.92;;;15.40;99.90;;;;;;5066308;28;20394;-80
2023/08/02 05:21:34;;;;;;;7.93;1.98;;;15.40;99.90;;;;;;5067231;28;20025;-80
2023/08/02 05:23:59;;;;;;;9.50;2.25;;;15.40;99.90;;;;;;5064825;28;20164;-80
2023/08/02 05:26:25;;;;;;;9.25;2.70;;;15.40;99.90;;;;;;5059487;28;20462;-80
2023/08/02 05:28:50;;;;;;;7.95;2.38;;;15.50;99.90;;;;;;5064991;28;20028;-80
2023/08/02 05:31:16;;;;;;;9.80;2.33;;;15.60;99.90;;;;;;5060175;28;20025;-80
2023/08/02 05:33:42;;;;;;;6.18;2.33;;;15.70;99.90;;;;;;5066369;28;20102;-80
2023/08/02 05:36:11;;;;;;;11.85;2.67;;;15.80;99.90;;;;;;5063527;28;20039;-80
2023/08/02 05:38:38;;;;;;;3.35;1.40;;;15.90;99.90;;;;;;5059331;28;20520;-79
2023/08/02 05:41:04;;;;;;;11.27;3.25;;;16.00;99.90;;;;;;5062745;28;20051;-79
2023/08/02 05:43:30;;;;;;;6.28;2.10;;;16.20;99.90;;;;;;5066058;28;20486;-79
2023/08/02 05:45:56;;;;;;;5.60;2.33;;;16.20;99.90;;;;;;5066949;28;20036;-79
2023/08/02 05:48:22;;;;;;;5.80;1.88;;;16.30;99.90;;;;;;5063628;28;20496;-80
2023/08/02 05:50:52;;;;;;;4.55;2.20;;;16.40;99.90;;;;;;5065300;28;20317;-79
2023/08/02 05:53:17;;;;;;;4.78;1.80;;;16.50;99.90;;;;;;5063550;28;20036;-80
2023/08/02 05:55:44;;;;;;;2.92;1.80;;;16.60;99.90;;;;;;5066949;28;20031;-84
2023/08/02 05:58:10;;;;;;;7.05;1.73;;;16.70;99.90;;;;;;5062476;28;20029;-80
2023/08/02 06:00:35;;;;;;;5.63;1.83;;;16.80;99.90;;;;;;5060724;28;20470;-80
2023/08/02 06:03:01;;;;;;;6.68;1.80;;;16.80;99.90;;;;;;5060486;28;20029;-77
2023/08/02 06:05:26;;;;;;;4.63;2.10;;;16.80;99.90;;;;;;5064090;28;20044;-78
2023/08/02 06:07:52;;;;;;;3.92;1.90;;;16.80;99.90;;;;;;5063635;28;20024;-80
2023/08/02 06:10:18;;;;;;;3.10;1.42;;;16.70;99.90;;;;;;5061976;28;20461;-78
2023/08/02 06:12:44;;;;;;;8.70;2.13;;;16.70;99.90;;;;;;5056984;28;20481;-82
2023/08/02 06:15:10;;;;;;;4.75;1.92;;;16.70;99.90;;;;;;5066894;28;20127;-77
2023/08/02 06:17:36;;;;;;;9.88;2.45;;;16.70;99.90;;;;;;5065651;28;20051;-78
2023/08/02 06:20:01;;;;;;;6.90;2.40;;;16.70;99.90;;;;;;5066527;28;20021;-79
2023/08/02 06:22:27;;;;;;;6.75;2.40;;;16.70;99.90;;;;;;5065993;28;20031;-79
2023/08/02 06:24:52;;;;;;;5.70;2.40;;;16.70;99.90;;;;;;5063598;28;20175;-80
2023/08/02 06:27:18;;;;;;;3.35;1.70;;;16.70;99.90;;;;;;5067075;28;20029;-78
2023/08/02 06:29:44;;;;;;;6.82;1.67;;;16.70;99.90;;;;;;5065011;28;20056;-78
2023/08/02 06:32:12;;;;;;;4.32;1.98;;;16.80;99.90;;;;;;5061096;28;20032;-78
2023/08/02 06:34:38;;;;;;;4.43;2.10;;;16.70;99.90;;;;;;5066218;28;20401;-82
2023/08/02 06:37:04;;;;;;;8.90;2.53;;;16.80;99.90;;;;;;5068269;28;20037;-79
2023/08/02 06:39:29;;;;;;;7.47;2.17;;;16.80;99.90;;;;;;5070877;28;20028;-78
2023/08/02 06:41:55;;;;;;;6.55;2.33;;;16.80;99.90;;;;;;5069968;28;20039;-79
2023/08/02 06:44:20;;;;;;;8.90;2.00;;;16.80;99.90;;;;;;5066749;28;20505;-78
2023/08/02 06:46:46;;;;;;;7.95;2.22;;;16.80;99.90;;;;;;5070512;28;20033;-79
2023/08/02 06:49:11;;;;;;;11.50;1.85;;;16.90;99.90;;;;;;5070325;28;20085;-79
2023/08/02 06:51:37;;;;;;;8.90;2.25;;;16.80;99.90;;;;;;5069468;28;20024;-76
2023/08/02 06:54:03;;;;;;;6.32;1.90;;;16.80;99.90;;;;;;5069844;28;20031;-80
2023/08/02 06:56:28;;;;;;;4.10;1.80;;;16.90;99.90;;;;;;5070563;28;20161;-78
2023/08/02 06:58:54;;;;;;;8.15;2.45;;;16.80;99.90;;;;;;5070165;28;20380;-79
2023/08/02 07:01:21;;;;;;;3.85;1.88;;;16.90;99.90;;;;;;5061227;28;20028;-79
2023/08/02 07:03:48;;;;;;;5.25;1.90;;;16.90;99.90;;;;;;5068751;28;20020;-79
2023/08/02 07:06:16;;;;;;;4.45;1.92;;;17.00;99.90;;;;;;5068393;28;20044;-80
2023/08/02 07:08:42;;;;;;;4.28;2.10;;;17.20;99.90;;;;;;5068366;28;20063;-79
2023/08/02 07:11:08;;;;;;;5.97;1.63;;;17.20;99.90;;;;;;5069584;28;20032;-79
2023/08/02 07:13:36;;;;;;;8.23;2.00;;;17.40;99.90;;;;;;5069730;28;20397;-80
2023/08/02 07:16:02;;;;;;;2.15;1.58;;;17.50;99.90;;;;;;5062683;28;20028;-79
2023/08/02 07:18:27;;;;;;;5.13;2.00;;;17.60;99.90;;;;;;5064212;28;20039;-78
2023/08/02 07:20:53;;;;;;;2.97;1.40;;;17.70;99.90;;;;;;5069853;28;20020;-79
2023/08/02 07:23:18;;;;;;;2.03;1.23;;;17.80;99.90;;;;;;5069163;28;20028;-79
2023/08/02 07:25:45;;;;;;;5.75;2.05;;;17.90;99.90;;;;;;5069363;28;20039;-78
2023/08/02 07:28:11;;;;;;;6.18;1.80;;;17.90;99.90;;;;;;5068718;28;20066;-79
2023/08/02 07:30:36;;;;;;;5.07;2.28;;;18.00;99.90;;;;;;5068280;28;20505;-79
2023/08/02 07:33:02;;;;;;;10.73;2.20;;;18.00;99.90;;;;;;5069240;28;20417;-80
2023/08/02 07:35:27;;;;;;;3.83;2.20;;;18.00;99.90;;;;;;5069582;28;20055;-79
2023/08/02 07:37:53;;;;;;;6.50;1.95;;;18.10;99.90;;;;;;5068594;28;20042;-79
2023/08/02 07:40:19;;;;;;;8.25;2.03;;;18.10;99.90;;;;;;5069211;28;20032;-79
2023/08/02 07:42:44;;;;;;;8.15;2.60;;;18.10;99.90;;;;;;5062261;28;20056;-81
2023/08/02 07:45:10;;;;;;;9.25;2.53;;;18.10;99.90;;;;;;5064508;28;20057;-82
2023/08/02 07:47:38;;;;;;;6.32;2.80;;;18.10;99.90;;;;;;5063737;28;20081;-80
2023/08/02 07:50:07;;;;;;;5.22;2.13;;;18.20;99.90;;;;;;5066410;28;20356;-80
2023/08/02 07:52:34;;;;;;;7.07;2.70;;;18.20;99.90;;;;;;5065570;28;20476;-79
2023/08/02 07:55:00;;;;;;;5.47;2.20;;;18.20;99.90;;;;;;5060825;28;20074;-80
2023/08/02 07:57:31;;;;;;;7.45;2.83;;;18.20;99.90;;;;;;5068477;28;20025;-80
2023/08/02 07:59:57;;;;;;;6.05;2.60;;;18.20;99.90;;;;;;5067404;28;20070;-79
2023/08/02 08:02:27;;;;;;;7.85;2.60;;;18.30;99.90;;;;;;5061342;28;20029;-80
2023/08/02 08:04:53;;;;;;;11.05;2.80;;;18.40;99.90;;;;;;5064193;28;20087;-81
2023/08/02 08:07:19;;;;;;;19.70;3.63;;;18.50;99.90;;;;;;5066583;28;20184;-79
2023/08/02 08:09:45;;;;;;;11.85;3.15;;;18.50;99.90;;;;;;5067500;28;20093;-78
2023/08/02 08:12:10;;;;;;;6.80;2.67;;;18.60;99.90;;;;;;5068002;28;20474;-78
2023/08/02 08:14:36;;;;;;;8.05;3.05;;;18.70;99.90;;;;;;5067135;28;20389;-79
2023/08/02 08:17:02;;;;;;;23.42;5.53;;;18.70;99.90;;;;;;5064210;28;20054;-79
2023/08/02 08:19:28;;;;;;;6.28;3.00;;;18.70;99.90;;;;;;5063956;28;20024;-79
2023/08/02 08:21:54;;;;;;;10.70;3.33;;;18.70;99.90;;;;;;5065833;28;20143;-82
2023/08/02 08:24:20;;;;;;;8.68;3.35;;;18.80;99.90;;;;;;5064433;28;20405;-79
2023/08/02 08:26:46;;;;;;;7.47;2.97;;;18.80;99.90;;;;;;5058562;28;20032;-79
2023/08/02 08:29:11;;;;;;;7.00;3.22;;;18.70;99.90;;;;;;5066867;28;20030;-79
2023/08/02 08:31:38;;;;;;;6.95;3.05;;;18.80;99.90;;;;;;5061379;28;20296;-78
2023/08/02 08:34:03;;;;;;;7.47;3.17;;;18.80;99.90;;;;;;5065848;28;20476;-79
2023/08/02 08:36:29;;;;;;;6.65;3.72;;;18.80;99.90;;;;;;5066005;28;20123;-78
2023/08/02 08:38:59;;;;;;;4.20;2.92;;;18.80;99.90;;;;;;5066288;28;20032;-79
2023/08/02 08:41:24;;;;;;;9.15;3.30;;;18.80;99.90;;;;;;5058228;28;20067;-79
2023/08/02 08:43:50;;;;;;;8.07;3.95;;;18.90;99.90;;;;;;5066780;28;20064;-79
2023/08/02 08:46:17;;;;;;;24.63;4.28;;;18.90;99.90;;;;;;5065116;28;20032;-80
2023/08/02 08:48:43;;;;;;;26.33;5.03;;;18.90;99.90;;;;;;5066964;28;20032;-80
2023/08/02 08:51:18;;;;;;;29.48;4.65;;;18.90;99.90;;;;;;5066526;28;20462;-80
2023/08/02 08:53:45;;;;;;;36.00;5.22;;;18.90;99.90;;;;;;5063731;28;20032;-80
2023/08/02 08:56:11;;;;;;;14.10;3.58;;;18.90;99.90;;;;;;5066691;28;20040;-79
2023/08/02 08:58:38;;;;;;;15.05;3.03;;;18.80;99.90;;;;;;5066731;28;20149;-80
2023/08/02 09:01:05;;;;;;;56.38;6.45;;;18.80;99.90;;;;;;5056364;28;20056;-79
2023/08/02 09:03:32;;;;;;;33.60;5.03;;;18.70;99.90;;;;;;5066197;28;20176;-80
2023/08/02 09:06:00;;;;;;;23.70;3.78;;;18.70;99.90;;;;;;5065730;28;20093;-79
2023/08/02 09:08:26;;;;;;;12.93;3.78;;;18.60;99.90;;;;;;5067506;28;20028;-80
2023/08/02 09:10:52;;;;;;;22.17;3.28;;;18.60;99.90;;;;;;5066006;28;20020;-79
2023/08/02 09:13:26;;;;;;;11.68;2.80;;;18.50;99.90;;;;;;5064853;28;20056;-79
2023/08/02 09:16:06;;;;;;;6.90;3.20;;;18.50;99.90;;;;;;5063777;28;20032;-79
2023/08/02 09:18:39;;;;;;;9.73;3.63;;;18.50;99.90;;;;;;5062000;28;20467;-78
2023/08/02 09:21:05;;;;;;;5.10;2.85;;;18.50;99.90;;;;;;5062707;28;20612;-80
2023/08/02 09:23:31;;;;;;;7.85;2.55;;;18.40;99.90;;;;;;5064124;28;20363;-80
2023/08/02 09:26:17;;;;;;;8.85;3.25;;;18.40;99.90;;;;;;5065727;28;20039;-80
2023/08/02 09:29:04;;;;;;;7.25;2.92;;;18.40;99.90;;;;;;5061622;28;20043;-80
2023/08/02 09:31:32;;;;;;;10.07;3.55;;;18.30;99.90;;;;;;5066669;28;20032;-80
2023/08/02 09:33:58;;;;;;;11.02;3.78;;;18.30;99.90;;;;;;5066244;28;20068;-79
2023/08/02 09:36:26;;;;;;;3.35;2.78;;;18.20;99.90;;;;;;5065505;28;20079;-79
2023/08/02 09:38:57;;;;;;;8.23;3.40;;;18.20;99.90;;;;;;5065975;28;20047;-79
2023/08/02 09:41:24;;;;;;;8.85;3.20;;;18.10;99.90;;;;;;5065188;28;20119;-79
2023/08/02 09:43:51;;;;;;;8.13;2.42;;;18.10;99.90;;;;;;5063937;28;20040;-79
2023/08/02 09:46:36;;;;;;;14.02;4.60;;;18.10;99.90;;;;;;5065815;28;20085;-79
2023/08/02 09:49:16;;;;;;;7.53;3.00;;;18.10;99.90;;;;;;5064867;28;20060;-79
2023/08/02 09:51:43;;;;;;;5.43;3.30;;;18.10;99.90;;;;;;5066549;28;20037;-79
2023/08/02 09:54:11;;;;;;;8.45;3.30;;;18.10;99.90;;;;;;5066954;28;20036;-79
2023/08/02 09:56:39;;;;;;;9.30;3.50;;;18.10;99.90;;;;;;5067474;28;20103;-79
2023/08/02 09:59:06;;;;;;;7.38;4.53;;;18.20;99.90;;;;;;5067144;28;20031;-80
2023/08/02 10:01:33;;;;;;;9.27;3.67;;;18.20;99.90;;;;;;5064203;28;20115;-79
2023/08/02 10:04:04;;;;;;;7.03;3.47;;;18.30;99.90;;;;;;5071404;28;20032;-79
2023/08/02 10:06:53;;;;;;;16.40;3.92;;;18.30;99.90;;;;;;5070125;28;20075;-78
2023/08/02 10:09:25;;;;;;;7.90;3.72;;;18.30;99.90;;;;;;5061859;28;20044;-80
2023/08/02 10:12:11;;;;;;;8.05;3.92;;;18.30;99.90;;;;;;5068811;28;20052;-79
2023/08/02 10:14:37;;;;;;;;;;;18.30;99.90;;;;;;5071787;28;20037;-79
2023/08/02 10:17:03;;;;;;;;;;;18.50;99.90;;;;;;5069953;28;20357;-79
2023/08/02 10:19:30;;;;;;;8.65;3.75;;;18.50;99.90;;;;;;5066222;28;19920;-78
2023/08/02 10:22:00;;;;;;;11.65;3.58;;;18.50;99.90;;;;;;5066685;28;20028;-78
2023/08/02 10:24:26;;;;;;;7.55;3.10;;;18.50;99.90;;;;;;5069637;28;20045;-79
2023/08/02 10:27:00;;;;;;;6.93;3.08;;;18.60;99.90;;;;;;5067883;28;20592;-80
2023/08/02 10:29:27;;;;;;;5.03;3.13;;;18.60;99.90;;;;;;5062968;28;20032;-79
2023/08/02 10:31:53;;;;;;;5.03;2.65;;;18.60;99.90;;;;;;5055253;28;20029;-79
2023/08/02 10:34:34;;;;;;;7.00;2.85;;;18.60;99.90;;;;;;5065027;28;20069;-78
2023/08/02 10:37:00;;;;;;;3.47;2.65;;;18.60;99.90;;;;;;5058353;28;20109;-79
2023/08/02 10:39:48;;;;;;;7.47;3.17;;;18.60;99.90;;;;;;5067400;28;20055;-81
2023/08/02 10:42:16;;;;;;;6.05;3.47;;;18.60;99.90;;;;;;5067565;28;20032;-79
2023/08/02 10:44:56;;;;;;;4.20;2.53;;;18.50;99.90;;;;;;5069685;28;20139;-80
2023/08/02 10:47:30;;;;;;;7.30;2.90;;;18.50;99.90;;;;;;5068492;28;20099;-80
2023/08/02 10:49:57;;;;;;;4.72;2.80;;;18.50;99.90;;;;;;5068538;28;20032;-81
2023/08/02 10:52:29;;;;;;;4.88;3.05;;;18.60;99.90;;;;;;5070826;28;20244;-80
2023/08/02 10:55:13;;;;;;;10.25;3.67;;;18.60;99.90;;;;;;5069843;28;20055;-80
2023/08/02 10:57:55;;;;;;;6.97;2.75;;;18.60;99.90;;;;;;5068808;28;20034;-80
2023/08/02 11:00:34;;;;;;;7.82;3.22;;;18.60;99.90;;;;;;5063693;28;20397;-80
2023/08/02 11:03:00;;;;;;;7.57;2.90;;;18.60;99.90;;;;;;5064008;28;20028;-81
2023/08/02 11:05:46;;;;;;;8.52;2.90;;;18.50;99.90;;;;;;5068249;28;20044;-80
2023/08/02 11:08:12;;;;;;;7.40;3.15;;;18.50;99.90;;;;;;5066298;28;20032;-80
2023/08/02 11:10:52;;;;;;;4.90;2.65;;;18.40;99.90;;;;;;5063812;28;20033;-80
2023/08/02 11:13:19;;;;;;;6.63;3.28;;;18.30;99.90;;;;;;5063936;28;20040;-80
2023/08/02 11:15:45;;;;;;;4.47;3.08;;;18.30;99.90;;;;;;5069790;28;20527;-79
2023/08/02 11:18:11;;;;;;;6.85;3.28;;;18.20;99.90;;;;;;5060097;28;20021;-78
2023/08/02 11:20:38;;;;;;;8.38;3.22;;;18.20;99.90;;;;;;5064839;28;20236;-79
2023/08/02 11:23:25;;;;;;;6.22;3.20;;;18.10;99.90;;;;;;5064285;28;20039;-79
2023/08/02 11:26:04;;;;;;;6.07;3.40;;;18.10;99.90;;;;;;5059634;28;20436;-78
2023/08/02 11:28:43;;;;;;;5.78;2.65;;;18.10;99.90;;;;;;5059891;28;20060;-82
2023/08/02 11:31:10;;;;;;;6.80;3.25;;;18.10;99.90;;;;;;5068946;28;20036;-80
2023/08/02 11:33:37;;;;;;;5.70;3.10;;;18.20;99.90;;;;;;5068616;28;20079;-83
2023/08/02 11:36:03;;;;;;;4.03;3.08;;;18.20;99.90;;;;;;5061421;28;20099;-79
2023/08/02 11:38:29;;;;;;;5.35;2.88;;;18.20;99.90;;;;;;5059510;28;20025;-80
2023/08/02 11:40:55;;;;;;;7.07;3.40;;;18.20;99.90;;;;;;5063155;28;20029;-80
2023/08/02 11:43:37;;;;;;;8.02;2.88;;;18.30;99.90;;;;;;5067985;28;20494;-81
2023/08/02 11:46:14;;;;;;;7.18;2.85;;;18.30;99.90;;;;;;5059573;28;20396;-79
2023/08/02 11:48:40;;;;;;;5.80;3.33;;;18.40;99.90;;;;;;5054853;28;20429;-79
2023/08/02 11:51:07;;;;;;;10.00;2.70;;;18.50;99.90;;;;;;5066998;28;20114;-85
2023/08/02 11:53:33;;;;;;;5.57;3.15;;;18.50;99.90;;;;;;5066362;28;20389;-83
2023/08/02 11:55:58;;;;;;;12.57;3.22;;;18.60;99.90;;;;;;5064389;28;20024;-78
2023/08/02 11:58:24;;;;;;;7.70;2.80;;;18.60;99.90;;;;;;5063203;28;20036;-80
2023/08/02 12:00:50;;;;;;;6.65;3.08;;;18.60;99.90;;;;;;5055798;28;20029;-79
2023/08/02 12:03:16;;;;;;;2.83;2.03;;;18.70;99.90;;;;;;5058423;28;20132;-80
2023/08/02 12:05:43;;;;;;;7.20;3.20;;;18.70;99.90;;;;;;5067298;28;20127;-78
2023/08/02 12:08:17;;;;;;;4.85;2.15;;;18.70;99.90;;;;;;5066659;28;20364;-82
2023/08/02 12:10:43;;;;;;;9.07;2.70;;;18.70;99.90;;;;;;5064252;28;20029;-80
2023/08/02 12:13:15;;;;;;;4.55;2.45;;;18.70;99.90;;;;;;5062323;28;20051;-79
2023/08/02 12:15:55;;;;;;;6.20;2.30;;;18.70;99.90;;;;;;5063615;28;20469;-79
2023/08/02 12:18:21;;;;;;;4.72;2.10;;;18.70;99.90;;;;;;5059705;28;20032;-79
2023/08/02 12:20:48;;;;;;;4.30;2.42;;;18.60;99.90;;;;;;5063381;28;20025;-79
2023/08/02 12:23:28;;;;;;;10.95;2.47;;;18.60;99.90;;;;;;5056351;28;20043;-80
2023/08/02 12:25:54;;;;;;;4.35;2.20;;;18.60;99.90;;;;;;5064910;28;20221;-80
2023/08/02 12:28:19;;;;;;;4.53;2.40;;;18.70;99.90;;;;;;5057682;28;20389;-80
2023/08/02 12:31:05;;;;;;;6.57;2.10;;;18.70;99.90;;;;;;5063398;28;20013;-80
2023/08/02 12:33:32;;;;;;;3.10;2.17;;;18.70;99.90;;;;;;5060458;28;20482;-80
2023/08/02 12:35:58;;;;;;;2.92;1.90;;;18.70;99.90;;;;;;5060153;28;20078;-80
2023/08/02 12:38:29;;;;;;;2.13;1.92;;;18.70;99.90;;;;;;5062235;28;20028;-81
2023/08/02 12:40:58;;;;;;;4.25;1.42;;;18.70;99.90;;;;;;5063623;28;20389;-80
2023/08/02 12:43:25;;;;;;;2.92;1.77;;;18.80;99.90;;;;;;5066876;28;20048;-81
2023/08/02 12:45:52;;;;;;;2.58;1.63;;;18.80;99.90;;;;;;5061663;28;20041;-79
2023/08/02 12:48:18;;;;;;;1.60;1.30;;;18.70;99.90;;;;;;5063567;28;20305;-81